Coastal Carolina Regional Airport
KEWN : now visible

Airfield :











YOU CAN JOIN US ON...

 
LOGIN :

Register | Disclaimer

   EN    FR    IT 

 









Legend :    VFR   Marginal VFR   IFR   Intensive IFR   Very Intensive IFR
Visi :
Ceiling :
>= 8 km
>= 3000ft
5 to 8 km
1000 to 3000 ft
1500m to 5 km
500 to 1000 ft
800 to 1500m
200 to 500 ft
< 800m
< 200 ft
Symbols :   Thunderstorms  Fog  Heavy snow  Heavy precipitations  Wind > 20 kt







- Airport Elevation : 18 ft
- IATA code : EWN


KEWN - Coastal Carolina Regional

CURRENT METAR :
  • 162254Z 04007KT 10SM CLR 27/21 A2995 RMK AO2 SLP142 T02720211

EXPIRED METARs :
  • 162154Z 06007KT 10SM FEW033 FEW041 28/23 A2996 RMK AO2 SLP144 T02830228
  • 162054Z 09010KT 10SM CLR 29/23 A2995 RMK AO2 SLP142 T02890233 56015

TAF KEWN
Valid from the 16 at 18:00 until the 17 at 18:00 UTC


161721Z 1618/1718 04011KT P6SM SCT040
FM170900 03004KT 5SM BR BKN005
FM171300 03006KT P6SM BKN015
FM171500 04008G14KT P6SM SCT040
No reported NOTAMs for that airfield.



MET'MAP, your aeronautical weather chart ! - Copyright ORBIFLY December 2007 - Disclaimer

ORBIFLY MET'MAP TEAM :

Programming & Development : Alexandra Zaïnal
Concept & Development : Baudouin d'Aumeries
Co-Development & Prog : Marc-Olivier Méhu
Technical & hardware support : Manuel Goepfert

Contact : metmap@orbifly.com




SOURCES & CREDITS :

   NOAA       Earth
Advisory